SAW weather

Sabiha Gökçen International Airport
Istanbul, İstanbul Province, Turkey

Public forecast

Using degrees Celsius for public forecast. Weather courtesy of forecast.io.

METAR (pilot weather report)

Retrieved 2019/06/18 01:20 UTC (0 seconds ago):

LTFJ 180120Z 02006KT 350V050 9999 SCT007 23/22 Q1010 NOSIG

TAF (pilot weather forecast)

Forecast is more than 12 hours old.

Retrieved 2019/06/17 00:00 UTC (1 day ago):

TAF LTFJ 172240Z 1800/1824 03007KT 9999 SCT010 BECMG 1802/1804 BKN025 TEMPO 1803/1806 -SHRA FEW020TCU BKN025 BECMG 1806/1810 03017KT SCT035 BECMG 1815/1818 03007KT BKN020